sensor_id;sensor_type;location;lat;lon;timestamp;temperature;humidity
21508;DHT22;10915;54.352;9.074;2023-04-03T00:01:08;1.10;99.90
21508;DHT22;10915;54.352;9.074;2023-04-03T00:03:33;1.20;99.90
21508;DHT22;10915;54.352;9.074;2023-04-03T00:06:00;1.20;99.90
21508;DHT22;10915;54.352;9.074;2023-04-03T00:08:26;1.00;99.90
21508;DHT22;10915;54.352;9.074;2023-04-03T00:10:52;0.90;99.90
21508;DHT22;10915;54.352;9.074;2023-04-03T00:13:18;0.90;99.90
21508;DHT22;10915;54.352;9.074;2023-04-03T00:15:43;0.80;99.90
21508;DHT22;10915;54.352;9.074;2023-04-03T00:18:09;0.90;99.90
21508;DHT22;10915;54.352;9.074;2023-04-03T00:20:35;0.90;99.90
21508;DHT22;10915;54.352;9.074;2023-04-03T00:23:02;0.80;99.90
21508;DHT22;10915;54.352;9.074;2023-04-03T00:25:28;0.80;99.90
21508;DHT22;10915;54.352;9.074;2023-04-03T00:27:54;0.90;99.90
21508;DHT22;10915;54.352;9.074;2023-04-03T00:30:21;0.90;99.90
21508;DHT22;10915;54.352;9.074;2023-04-03T00:32:48;0.90;99.90
21508;DHT22;10915;54.352;9.074;2023-04-03T00:35:14;0.90;99.90
21508;DHT22;10915;54.352;9.074;2023-04-03T00:37:41;0.90;99.90
21508;DHT22;10915;54.352;9.074;2023-04-03T00:40:08;0.80;99.90
21508;DHT22;10915;54.352;9.074;2023-04-03T00:42:36;0.80;99.90
21508;DHT22;10915;54.352;9.074;2023-04-03T00:47:29;0.80;99.90
21508;DHT22;10915;54.352;9.074;2023-04-03T00:49:56;0.80;99.90
21508;DHT22;10915;54.352;9.074;2023-04-03T00:52:26;0.80;99.90
21508;DHT22;10915;54.352;9.074;2023-04-03T00:54:56;0.80;99.90
21508;DHT22;10915;54.352;9.074;2023-04-03T00:57:23;0.80;99.90
21508;DHT22;10915;54.352;9.074;2023-04-03T00:59:52;0.80;99.90
21508;DHT22;10915;54.352;9.074;2023-04-03T01:02:18;0.80;99.90
21508;DHT22;10915;54.352;9.074;2023-04-03T01:04:44;0.80;99.90
21508;DHT22;10915;54.352;9.074;2023-04-03T01:07:15;0.80;99.90
21508;DHT22;10915;54.352;9.074;2023-04-03T01:09:42;0.80;99.90
21508;DHT22;10915;54.352;9.074;2023-04-03T01:12:23;0.90;99.90
21508;DHT22;10915;54.352;9.074;2023-04-03T01:14:55;1.00;99.90
21508;DHT22;10915;54.352;9.074;2023-04-03T01:17:28;1.00;99.90
21508;DHT22;10915;54.352;9.074;2023-04-03T01:25:43;1.00;99.90
21508;DHT22;10915;54.352;9.074;2023-04-03T01:28:12;1.00;99.90
21508;DHT22;10915;54.352;9.074;2023-04-03T01:33:27;0.90;99.90
21508;DHT22;10915;54.352;9.074;2023-04-03T01:35:52;1.00;99.90
21508;DHT22;10915;54.352;9.074;2023-04-03T01:38:18;1.00;99.90
21508;DHT22;10915;54.352;9.074;2023-04-03T01:40:44;1.00;99.90
21508;DHT22;10915;54.352;9.074;2023-04-03T01:43:09;1.00;99.90
21508;DHT22;10915;54.352;9.074;2023-04-03T01:45:35;1.00;99.90
21508;DHT22;10915;54.352;9.074;2023-04-03T01:48:01;1.00;99.90
21508;DHT22;10915;54.352;9.074;2023-04-03T01:50:26;0.90;99.90
21508;DHT22;10915;54.352;9.074;2023-04-03T01:52:52;1.00;99.90
21508;DHT22;10915;54.352;9.074;2023-04-03T01:55:17;1.00;99.90
21508;DHT22;10915;54.352;9.074;2023-04-03T01:57:43;1.00;99.90
21508;DHT22;10915;54.352;9.074;2023-04-03T02:00:09;1.00;99.90
21508;DHT22;10915;54.352;9.074;2023-04-03T02:02:35;1.00;99.90
21508;DHT22;10915;54.352;9.074;2023-04-03T02:05:00;0.90;99.90
21508;DHT22;10915;54.352;9.074;2023-04-03T02:07:26;0.90;99.90
21508;DHT22;10915;54.352;9.074;2023-04-03T02:09:52;1.00;99.90
21508;DHT22;10915;54.352;9.074;2023-04-03T02:12:18;1.00;99.90
21508;DHT22;10915;54.352;9.074;2023-04-03T02:14:43;1.00;99.90
21508;DHT22;10915;54.352;9.074;2023-04-03T02:17:09;1.00;99.90
21508;DHT22;10915;54.352;9.074;2023-04-03T02:19:35;1.00;99.90
21508;DHT22;10915;54.352;9.074;2023-04-03T02:22:04;0.90;99.90
21508;DHT22;10915;54.352;9.074;2023-04-03T02:24:31;1.00;99.90
21508;DHT22;10915;54.352;9.074;2023-04-03T02:26:56;1.00;99.90
21508;DHT22;10915;54.352;9.074;2023-04-03T02:29:22;1.00;99.90
21508;DHT22;10915;54.352;9.074;2023-04-03T02:31:49;1.00;99.90
21508;DHT22;10915;54.352;9.074;2023-04-03T02:34:14;1.10;99.90
21508;DHT22;10915;54.352;9.074;2023-04-03T02:36:40;1.10;99.90
21508;DHT22;10915;54.352;9.074;2023-04-03T02:39:06;1.00;99.90
21508;DHT22;10915;54.352;9.074;2023-04-03T02:41:31;1.10;99.90
21508;DHT22;10915;54.352;9.074;2023-04-03T02:44:04;1.10;99.90
21508;DHT22;10915;54.352;9.074;2023-04-03T02:46:31;1.00;99.90
21508;DHT22;10915;54.352;9.074;2023-04-03T02:48:56;1.00;99.90
21508;DHT22;10915;54.352;9.074;2023-04-03T02:51:22;0.90;99.90
21508;DHT22;10915;54.352;9.074;2023-04-03T02:53:51;0.90;99.90
21508;DHT22;10915;54.352;9.074;2023-04-03T02:56:17;0.80;99.90
21508;DHT22;10915;54.352;9.074;2023-04-03T02:58:44;0.70;99.90
21508;DHT22;10915;54.352;9.074;2023-04-03T03:01:10;0.70;99.90
21508;DHT22;10915;54.352;9.074;2023-04-03T03:03:35;0.60;99.90
21508;DHT22;10915;54.352;9.074;2023-04-03T03:06:09;0.60;99.90
21508;DHT22;10915;54.352;9.074;2023-04-03T03:08:36;0.60;99.90
21508;DHT22;10915;54.352;9.074;2023-04-03T03:11:02;0.60;99.90
21508;DHT22;10915;54.352;9.074;2023-04-03T03:13:28;0.50;99.90
21508;DHT22;10915;54.352;9.074;2023-04-03T03:15:54;0.50;99.90
21508;DHT22;10915;54.352;9.074;2023-04-03T03:18:19;0.50;99.90
21508;DHT22;10915;54.352;9.074;2023-04-03T03:20:45;0.40;99.90
21508;DHT22;10915;54.352;9.074;2023-04-03T03:23:11;0.40;99.90
21508;DHT22;10915;54.352;9.074;2023-04-03T03:25:40;0.30;99.90
21508;DHT22;10915;54.352;9.074;2023-04-03T03:28:06;0.30;99.90
21508;DHT22;10915;54.352;9.074;2023-04-03T03:30:33;0.20;99.90
21508;DHT22;10915;54.352;9.074;2023-04-03T03:32:58;0.20;99.90
21508;DHT22;10915;54.352;9.074;2023-04-03T03:35:24;0.20;99.90
21508;DHT22;10915;54.352;9.074;2023-04-03T03:37:50;0.10;99.90
21508;DHT22;10915;54.352;9.074;2023-04-03T03:40:15;0.10;99.90
21508;DHT22;10915;54.352;9.074;2023-04-03T03:42:41;0.10;99.90
21508;DHT22;10915;54.352;9.074;2023-04-03T03:45:07;0.10;99.90
21508;DHT22;10915;54.352;9.074;2023-04-03T03:47:33;0.00;99.90
21508;DHT22;10915;54.352;9.074;2023-04-03T03:49:58;0.10;99.90
21508;DHT22;10915;54.352;9.074;2023-04-03T03:52:25;0.10;99.90
21508;DHT22;10915;54.352;9.074;2023-04-03T03:54:50;0.00;99.90
21508;DHT22;10915;54.352;9.074;2023-04-03T03:57:16;0.00;99.90
21508;DHT22;10915;54.352;9.074;2023-04-03T03:59:42;0.00;99.90
21508;DHT22;10915;54.352;9.074;2023-04-03T04:02:09;0.00;99.90
21508;DHT22;10915;54.352;9.074;2023-04-03T04:04:35;0.00;99.90
21508;DHT22;10915;54.352;9.074;2023-04-03T04:07:00;-0.10;99.90
21508;DHT22;10915;54.352;9.074;2023-04-03T04:09:26;-0.10;99.90
21508;DHT22;10915;54.352;9.074;2023-04-03T04:11:53;-0.10;99.90
21508;DHT22;10915;54.352;9.074;2023-04-03T04:14:18;-0.10;99.90
21508;DHT22;10915;54.352;9.074;2023-04-03T04:16:46;-0.20;99.90
21508;DHT22;10915;54.352;9.074;2023-04-03T04:19:12;-0.30;99.90
21508;DHT22;10915;54.352;9.074;2023-04-03T04:21:38;-0.20;99.90
21508;DHT22;10915;54.352;9.074;2023-04-03T04:24:04;-0.30;99.90
21508;DHT22;10915;54.352;9.074;2023-04-03T04:26:30;-0.30;99.90
21508;DHT22;10915;54.352;9.074;2023-04-03T04:28:56;-0.40;99.90
21508;DHT22;10915;54.352;9.074;2023-04-03T04:31:21;-0.40;99.90
21508;DHT22;10915;54.352;9.074;2023-04-03T04:33:47;-0.50;99.90
21508;DHT22;10915;54.352;9.074;2023-04-03T04:36:13;-0.60;99.90
21508;DHT22;10915;54.352;9.074;2023-04-03T04:38:40;-0.60;99.90
21508;DHT22;10915;54.352;9.074;2023-04-03T04:41:06;-0.60;99.90
21508;DHT22;10915;54.352;9.074;2023-04-03T04:43:32;-0.60;99.90
21508;DHT22;10915;54.352;9.074;2023-04-03T04:46:06;-0.60;99.90
21508;DHT22;10915;54.352;9.074;2023-04-03T04:48:33;-0.70;99.90
21508;DHT22;10915;54.352;9.074;2023-04-03T04:50:59;-0.60;99.90
21508;DHT22;10915;54.352;9.074;2023-04-03T04:53:24;-0.60;99.90
21508;DHT22;10915;54.352;9.074;2023-04-03T04:55:51;-0.60;99.90
21508;DHT22;10915;54.352;9.074;2023-04-03T04:58:17;-0.60;99.90
21508;DHT22;10915;54.352;9.074;2023-04-03T05:00:42;-0.60;99.90
21508;DHT22;10915;54.352;9.074;2023-04-03T05:03:08;-0.60;99.90
21508;DHT22;10915;54.352;9.074;2023-04-03T05:05:33;-0.50;99.90
21508;DHT22;10915;54.352;9.074;2023-04-03T05:08:01;-0.40;99.90
21508;DHT22;10915;54.352;9.074;2023-04-03T05:13:02;-0.30;99.90
21508;DHT22;10915;54.352;9.074;2023-04-03T05:15:28;-0.20;99.90
21508;DHT22;10915;54.352;9.074;2023-04-03T05:17:53;0.00;99.90
21508;DHT22;10915;54.352;9.074;2023-04-03T05:20:19;0.00;99.90
21508;DHT22;10915;54.352;9.074;2023-04-03T05:22:45;0.10;99.90
21508;DHT22;10915;54.352;9.074;2023-04-03T05:25:11;0.20;99.90
21508;DHT22;10915;54.352;9.074;2023-04-03T05:27:39;0.30;99.90
21508;DHT22;10915;54.352;9.074;2023-04-03T05:30:05;0.40;99.90
21508;DHT22;10915;54.352;9.074;2023-04-03T05:32:31;0.60;99.90
21508;DHT22;10915;54.352;9.074;2023-04-03T05:34:57;0.90;99.90
21508;DHT22;10915;54.352;9.074;2023-04-03T05:37:23;1.20;99.90
21508;DHT22;10915;54.352;9.074;2023-04-03T05:39:49;1.50;99.90
21508;DHT22;10915;54.352;9.074;2023-04-03T05:42:14;1.70;99.90
21508;DHT22;10915;54.352;9.074;2023-04-03T05:44:41;1.80;99.90
21508;DHT22;10915;54.352;9.074;2023-04-03T05:47:07;1.90;99.90
21508;DHT22;10915;54.352;9.074;2023-04-03T05:49:32;2.10;99.90
21508;DHT22;10915;54.352;9.074;2023-04-03T05:51:59;2.30;99.90
21508;DHT22;10915;54.352;9.074;2023-04-03T05:54:29;2.50;99.90
21508;DHT22;10915;54.352;9.074;2023-04-03T05:56:55;2.80;99.90
21508;DHT22;10915;54.352;9.074;2023-04-03T05:59:21;3.10;99.90
21508;DHT22;10915;54.352;9.074;2023-04-03T06:01:47;3.20;99.90
21508;DHT22;10915;54.352;9.074;2023-04-03T06:04:14;3.30;99.90
21508;DHT22;10915;54.352;9.074;2023-04-03T06:06:58;3.40;99.90
21508;DHT22;10915;54.352;9.074;2023-04-03T06:09:26;3.40;99.90
21508;DHT22;10915;54.352;9.074;2023-04-03T06:11:52;3.30;99.90
21508;DHT22;10915;54.352;9.074;2023-04-03T06:14:18;3.30;99.90
21508;DHT22;10915;54.352;9.074;2023-04-03T06:16:44;3.30;99.90
21508;DHT22;10915;54.352;9.074;2023-04-03T06:19:12;3.10;99.90
21508;DHT22;10915;54.352;9.074;2023-04-03T06:21:38;3.10;99.90
21508;DHT22;10915;54.352;9.074;2023-04-03T06:24:04;3.00;99.90
21508;DHT22;10915;54.352;9.074;2023-04-03T06:26:31;3.20;99.90
21508;DHT22;10915;54.352;9.074;2023-04-03T06:28:57;3.20;99.90
21508;DHT22;10915;54.352;9.074;2023-04-03T06:31:22;3.20;99.90
21508;DHT22;10915;54.352;9.074;2023-04-03T06:33:48;3.40;99.90
21508;DHT22;10915;54.352;9.074;2023-04-03T06:36:14;3.50;99.90
21508;DHT22;10915;54.352;9.074;2023-04-03T06:38:45;3.40;99.90
21508;DHT22;10915;54.352;9.074;2023-04-03T06:41:11;3.20;99.90
21508;DHT22;10915;54.352;9.074;2023-04-03T06:43:36;3.20;99.90
21508;DHT22;10915;54.352;9.074;2023-04-03T06:46:05;3.00;99.90
21508;DHT22;10915;54.352;9.074;2023-04-03T06:48:30;2.90;99.90
21508;DHT22;10915;54.352;9.074;2023-04-03T06:50:56;3.00;99.90
21508;DHT22;10915;54.352;9.074;2023-04-03T06:53:22;3.00;99.90
21508;DHT22;10915;54.352;9.074;2023-04-03T06:55:48;3.30;99.90
21508;DHT22;10915;54.352;9.074;2023-04-03T06:58:13;3.40;99.90
21508;DHT22;10915;54.352;9.074;2023-04-03T07:00:40;3.50;99.90
21508;DHT22;10915;54.352;9.074;2023-04-03T07:03:06;3.50;99.90
21508;DHT22;10915;54.352;9.074;2023-04-03T07:05:32;3.70;99.90
21508;DHT22;10915;54.352;9.074;2023-04-03T07:07:58;4.10;99.90
21508;DHT22;10915;54.352;9.074;2023-04-03T07:10:23;4.40;99.90
21508;DHT22;10915;54.352;9.074;2023-04-03T07:12:49;4.70;99.90
21508;DHT22;10915;54.352;9.074;2023-04-03T07:15:15;5.00;99.90
21508;DHT22;10915;54.352;9.074;2023-04-03T07:17:41;5.20;99.90
21508;DHT22;10915;54.352;9.074;2023-04-03T07:20:07;5.50;99.90
21508;DHT22;10915;54.352;9.074;2023-04-03T07:22:33;5.90;99.90
21508;DHT22;10915;54.352;9.074;2023-04-03T07:24:59;6.30;99.90
21508;DHT22;10915;54.352;9.074;2023-04-03T07:27:25;6.70;99.90
21508;DHT22;10915;54.352;9.074;2023-04-03T07:29:51;7.00;99.90
21508;DHT22;10915;54.352;9.074;2023-04-03T07:32:17;7.30;99.90
21508;DHT22;10915;54.352;9.074;2023-04-03T07:34:43;7.50;99.90
21508;DHT22;10915;54.352;9.074;2023-04-03T07:37:09;7.90;99.90
21508;DHT22;10915;54.352;9.074;2023-04-03T07:39:34;8.40;99.90
21508;DHT22;10915;54.352;9.074;2023-04-03T07:42:00;9.10;99.90
21508;DHT22;10915;54.352;9.074;2023-04-03T07:44:27;10.00;99.90
21508;DHT22;10915;54.352;9.074;2023-04-03T07:46:54;10.80;99.90
21508;DHT22;10915;54.352;9.074;2023-04-03T07:49:21;11.20;99.90
21508;DHT22;10915;54.352;9.074;2023-04-03T07:51:49;12.40;99.90
21508;DHT22;10915;54.352;9.074;2023-04-03T07:54:15;13.80;99.90
21508;DHT22;10915;54.352;9.074;2023-04-03T07:56:41;14.90;99.90
21508;DHT22;10915;54.352;9.074;2023-04-03T07:59:09;15.50;99.90
21508;DHT22;10915;54.352;9.074;2023-04-03T08:01:34;16.70;99.90
21508;DHT22;10915;54.352;9.074;2023-04-03T08:04:00;17.20;99.90
21508;DHT22;10915;54.352;9.074;2023-04-03T08:06:26;17.80;99.90
21508;DHT22;10915;54.352;9.074;2023-04-03T08:08:54;18.20;99.90
21508;DHT22;10915;54.352;9.074;2023-04-03T08:11:20;18.10;99.90
21508;DHT22;10915;54.352;9.074;2023-04-03T08:13:46;17.80;99.90
21508;DHT22;10915;54.352;9.074;2023-04-03T08:16:16;17.30;99.90
21508;DHT22;10915;54.352;9.074;2023-04-03T08:18:42;17.00;99.90
21508;DHT22;10915;54.352;9.074;2023-04-03T08:21:11;17.00;99.90
21508;DHT22;10915;54.352;9.074;2023-04-03T08:23:38;16.90;99.90
21508;DHT22;10915;54.352;9.074;2023-04-03T08:26:13;16.80;99.90
21508;DHT22;10915;54.352;9.074;2023-04-03T08:28:39;16.50;99.90
21508;DHT22;10915;54.352;9.074;2023-04-03T08:31:08;16.30;99.90
21508;DHT22;10915;54.352;9.074;2023-04-03T08:33:36;16.20;99.90
21508;DHT22;10915;54.352;9.074;2023-04-03T08:36:04;15.80;99.90
21508;DHT22;10915;54.352;9.074;2023-04-03T08:38:30;15.40;99.90
21508;DHT22;10915;54.352;9.074;2023-04-03T08:41:11;14.40;99.90
21508;DHT22;10915;54.352;9.074;2023-04-03T08:46:14;15.00;99.90
21508;DHT22;10915;54.352;9.074;2023-04-03T08:48:43;15.50;99.90
21508;DHT22;10915;54.352;9.074;2023-04-03T08:51:17;16.00;99.90
21508;DHT22;10915;54.352;9.074;2023-04-03T08:54:01;16.20;99.90
21508;DHT22;10915;54.352;9.074;2023-04-03T08:56:29;16.30;99.90
21508;DHT22;10915;54.352;9.074;2023-04-03T08:59:03;16.30;99.90
21508;DHT22;10915;54.352;9.074;2023-04-03T09:01:38;15.70;99.90
21508;DHT22;10915;54.352;9.074;2023-04-03T09:04:14;15.40;99.90
21508;DHT22;10915;54.352;9.074;2023-04-03T09:06:43;15.00;99.90
21508;DHT22;10915;54.352;9.074;2023-04-03T09:14:26;11.40;99.90
21508;DHT22;10915;54.352;9.074;2023-04-03T09:24:49;8.50;99.90
21508;DHT22;10915;54.352;9.074;2023-04-03T09:27:17;8.20;99.90
21508;DHT22;10915;54.352;9.074;2023-04-03T09:29:44;8.30;99.90
21508;DHT22;10915;54.352;9.074;2023-04-03T09:32:37;8.60;99.90
21508;DHT22;10915;54.352;9.074;2023-04-03T09:37:48;8.40;99.90
21508;DHT22;10915;54.352;9.074;2023-04-03T09:42:53;8.60;99.90
21508;DHT22;10915;54.352;9.074;2023-04-03T09:45:33;8.90;99.90
21508;DHT22;10915;54.352;9.074;2023-04-03T09:48:16;9.10;99.90
21508;DHT22;10915;54.352;9.074;2023-04-03T09:50:56;8.60;99.90
21508;DHT22;10915;54.352;9.074;2023-04-03T09:53:43;9.30;99.90
21508;DHT22;10915;54.352;9.074;2023-04-03T09:58:49;11.80;99.90
21508;DHT22;10915;54.352;9.074;2023-04-03T10:01:31;10.20;99.90
21508;DHT22;10915;54.352;9.074;2023-04-03T10:04:16;9.90;99.90
21508;DHT22;10915;54.352;9.074;2023-04-03T10:06:48;10.90;99.90
21508;DHT22;10915;54.352;9.074;2023-04-03T10:12:10;12.40;99.90
21508;DHT22;10915;54.352;9.074;2023-04-03T10:14:58;12.40;99.90
21508;DHT22;10915;54.352;9.074;2023-04-03T10:22:44;10.70;99.90
21508;DHT22;10915;54.352;9.074;2023-04-03T10:38:42;10.30;99.90
21508;DHT22;10915;54.352;9.074;2023-04-03T10:41:28;10.30;99.90
21508;DHT22;10915;54.352;9.074;2023-04-03T10:47:11;9.40;99.90
21508;DHT22;10915;54.352;9.074;2023-04-03T10:49:53;9.00;99.90
21508;DHT22;10915;54.352;9.074;2023-04-03T10:57:53;9.50;99.90
21508;DHT22;10915;54.352;9.074;2023-04-03T11:00:44;9.30;99.90
21508;DHT22;10915;54.352;9.074;2023-04-03T11:03:16;8.80;99.90
21508;DHT22;10915;54.352;9.074;2023-04-03T11:05:48;8.60;99.90
21508;DHT22;10915;54.352;9.074;2023-04-03T11:08:48;8.20;99.90
21508;DHT22;10915;54.352;9.074;2023-04-03T11:11:20;8.70;99.90
21508;DHT22;10915;54.352;9.074;2023-04-03T11:16:26;9.40;99.90
21508;DHT22;10915;54.352;9.074;2023-04-03T11:18:59;9.70;99.90
21508;DHT22;10915;54.352;9.074;2023-04-03T11:21:41;9.90;99.90
21508;DHT22;10915;54.352;9.074;2023-04-03T11:24:17;10.30;99.90
21508;DHT22;10915;54.352;9.074;2023-04-03T11:26:48;10.10;99.90
21508;DHT22;10915;54.352;9.074;2023-04-03T11:29:19;9.70;99.90
21508;DHT22;10915;54.352;9.074;2023-04-03T11:34:40;9.40;99.90
21508;DHT22;10915;54.352;9.074;2023-04-03T11:37:35;9.50;99.90
21508;DHT22;10915;54.352;9.074;2023-04-03T11:40:04;9.40;99.90
21508;DHT22;10915;54.352;9.074;2023-04-03T11:42:39;9.50;99.90
21508;DHT22;10915;54.352;9.074;2023-04-03T11:45:25;9.70;99.90
21508;DHT22;10915;54.352;9.074;2023-04-03T11:50:41;10.00;99.90
21508;DHT22;10915;54.352;9.074;2023-04-03T12:13:40;9.60;99.90
21508;DHT22;10915;54.352;9.074;2023-04-03T12:26:36;10.00;99.90
21508;DHT22;10915;54.352;9.074;2023-04-03T12:35:17;10.90;99.90
21508;DHT22;10915;54.352;9.074;2023-04-03T12:43:43;9.70;99.90
21508;DHT22;10915;54.352;9.074;2023-04-03T12:46:15;9.70;99.90
21508;DHT22;10915;54.352;9.074;2023-04-03T12:51:31;10.10;99.90
21508;DHT22;10915;54.352;9.074;2023-04-03T12:56:43;9.70;99.90
21508;DHT22;10915;54.352;9.074;2023-04-03T12:59:38;9.50;99.90
21508;DHT22;10915;54.352;9.074;2023-04-03T13:04:45;9.70;99.90
21508;DHT22;10915;54.352;9.074;2023-04-03T13:07:23;9.50;99.90
21508;DHT22;10915;54.352;9.074;2023-04-03T13:10:00;9.20;99.90
21508;DHT22;10915;54.352;9.074;2023-04-03T13:12:26;9.20;99.90
21508;DHT22;10915;54.352;9.074;2023-04-03T13:14:54;9.00;99.90
21508;DHT22;10915;54.352;9.074;2023-04-03T13:17:20;9.20;99.90
21508;DHT22;10915;54.352;9.074;2023-04-03T13:19:46;9.60;99.90
21508;DHT22;10915;54.352;9.074;2023-04-03T13:24:59;10.20;99.90
21508;DHT22;10915;54.352;9.074;2023-04-03T13:27:26;10.30;99.90
21508;DHT22;10915;54.352;9.074;2023-04-03T13:29:54;10.50;99.90
21508;DHT22;10915;54.352;9.074;2023-04-03T13:32:23;10.40;99.90
21508;DHT22;10915;54.352;9.074;2023-04-03T13:34:50;10.10;99.90
21508;DHT22;10915;54.352;9.074;2023-04-03T13:37:25;9.40;99.90
21508;DHT22;10915;54.352;9.074;2023-04-03T13:40:17;9.20;99.90
21508;DHT22;10915;54.352;9.074;2023-04-03T13:42:43;9.00;99.90
21508;DHT22;10915;54.352;9.074;2023-04-03T13:45:21;8.70;99.90
21508;DHT22;10915;54.352;9.074;2023-04-03T13:47:51;8.60;99.90
21508;DHT22;10915;54.352;9.074;2023-04-03T13:50:20;8.40;99.90
21508;DHT22;10915;54.352;9.074;2023-04-03T13:52:53;8.30;99.90
21508;DHT22;10915;54.352;9.074;2023-04-03T13:55:28;8.10;99.90
21508;DHT22;10915;54.352;9.074;2023-04-03T13:58:16;8.10;99.90
21508;DHT22;10915;54.352;9.074;2023-04-03T14:01:10;8.00;99.90
21508;DHT22;10915;54.352;9.074;2023-04-03T14:03:46;8.00;99.90
21508;DHT22;10915;54.352;9.074;2023-04-03T14:06:15;8.30;99.90
21508;DHT22;10915;54.352;9.074;2023-04-03T14:08:42;8.60;99.90
21508;DHT22;10915;54.352;9.074;2023-04-03T14:11:14;8.90;99.90
21508;DHT22;10915;54.352;9.074;2023-04-03T14:13:40;9.10;99.90
21508;DHT22;10915;54.352;9.074;2023-04-03T14:16:06;9.10;99.90
21508;DHT22;10915;54.352;9.074;2023-04-03T14:18:32;9.20;99.90
21508;DHT22;10915;54.352;9.074;2023-04-03T14:20:57;9.20;99.90
21508;DHT22;10915;54.352;9.074;2023-04-03T14:23:23;9.20;99.90
21508;DHT22;10915;54.352;9.074;2023-04-03T14:25:48;9.10;99.90
21508;DHT22;10915;54.352;9.074;2023-04-03T14:28:18;9.00;99.90
21508;DHT22;10915;54.352;9.074;2023-04-03T14:30:45;9.00;99.90
21508;DHT22;10915;54.352;9.074;2023-04-03T14:33:15;8.90;99.90
21508;DHT22;10915;54.352;9.074;2023-04-03T14:35:41;8.80;99.90
21508;DHT22;10915;54.352;9.074;2023-04-03T14:38:28;8.80;99.90
21508;DHT22;10915;54.352;9.074;2023-04-03T14:40:55;8.70;99.90
21508;DHT22;10915;54.352;9.074;2023-04-03T14:43:21;8.60;99.90
21508;DHT22;10915;54.352;9.074;2023-04-03T14:45:48;8.50;99.90
21508;DHT22;10915;54.352;9.074;2023-04-03T14:48:21;8.40;99.90
21508;DHT22;10915;54.352;9.074;2023-04-03T14:50:47;8.40;99.90
21508;DHT22;10915;54.352;9.074;2023-04-03T14:53:15;8.40;99.90
21508;DHT22;10915;54.352;9.074;2023-04-03T14:55:44;8.50;99.90
21508;DHT22;10915;54.352;9.074;2023-04-03T14:58:16;8.50;99.90
21508;DHT22;10915;54.352;9.074;2023-04-03T15:00:42;8.50;99.90
21508;DHT22;10915;54.352;9.074;2023-04-03T15:03:20;8.40;99.90
21508;DHT22;10915;54.352;9.074;2023-04-03T15:05:47;8.50;99.90
21508;DHT22;10915;54.352;9.074;2023-04-03T15:08:22;8.40;99.90
21508;DHT22;10915;54.352;9.074;2023-04-03T15:10:49;8.40;99.90
21508;DHT22;10915;54.352;9.074;2023-04-03T15:13:18;8.30;99.90
21508;DHT22;10915;54.352;9.074;2023-04-03T15:15:44;8.20;99.90
21508;DHT22;10915;54.352;9.074;2023-04-03T15:18:23;8.20;99.90
21508;DHT22;10915;54.352;9.074;2023-04-03T15:20:51;8.10;99.90
21508;DHT22;10915;54.352;9.074;2023-04-03T15:23:17;8.10;99.90
21508;DHT22;10915;54.352;9.074;2023-04-03T15:25:45;8.10;99.90
21508;DHT22;10915;54.352;9.074;2023-04-03T15:30:43;8.00;99.90
21508;DHT22;10915;54.352;9.074;2023-04-03T15:33:09;8.00;99.90
21508;DHT22;10915;54.352;9.074;2023-04-03T15:35:35;7.90;99.90
21508;DHT22;10915;54.352;9.074;2023-04-03T15:38:00;7.90;99.90
21508;DHT22;10915;54.352;9.074;2023-04-03T15:40:26;8.00;99.90
21508;DHT22;10915;54.352;9.074;2023-04-03T15:42:51;8.00;99.90
21508;DHT22;10915;54.352;9.074;2023-04-03T15:45:17;8.10;99.90
21508;DHT22;10915;54.352;9.074;2023-04-03T15:47:46;8.00;99.90
21508;DHT22;10915;54.352;9.074;2023-04-03T15:50:13;7.80;99.90
21508;DHT22;10915;54.352;9.074;2023-04-03T15:52:39;7.80;99.90
21508;DHT22;10915;54.352;9.074;2023-04-03T15:55:05;7.70;99.90
21508;DHT22;10915;54.352;9.074;2023-04-03T15:57:31;7.70;99.90
21508;DHT22;10915;54.352;9.074;2023-04-03T15:59:57;7.60;99.90
21508;DHT22;10915;54.352;9.074;2023-04-03T16:02:23;7.60;99.90
21508;DHT22;10915;54.352;9.074;2023-04-03T16:04:49;7.60;99.90
21508;DHT22;10915;54.352;9.074;2023-04-03T16:07:14;7.50;99.90
21508;DHT22;10915;54.352;9.074;2023-04-03T16:09:40;7.50;99.90
21508;DHT22;10915;54.352;9.074;2023-04-03T16:12:06;7.50;99.90
21508;DHT22;10915;54.352;9.074;2023-04-03T16:14:31;7.40;99.90
21508;DHT22;10915;54.352;9.074;2023-04-03T16:16:58;7.40;99.90
21508;DHT22;10915;54.352;9.074;2023-04-03T16:19:24;7.30;99.90
21508;DHT22;10915;54.352;9.074;2023-04-03T16:21:50;7.30;99.90
21508;DHT22;10915;54.352;9.074;2023-04-03T16:24:15;7.20;99.90
21508;DHT22;10915;54.352;9.074;2023-04-03T16:26:41;7.10;99.90
21508;DHT22;10915;54.352;9.074;2023-04-03T16:29:06;7.00;99.90
21508;DHT22;10915;54.352;9.074;2023-04-03T16:31:32;7.00;99.90
21508;DHT22;10915;54.352;9.074;2023-04-03T16:33:58;7.00;99.90
21508;DHT22;10915;54.352;9.074;2023-04-03T16:36:25;6.90;99.90
21508;DHT22;10915;54.352;9.074;2023-04-03T16:38:51;6.90;99.90
21508;DHT22;10915;54.352;9.074;2023-04-03T16:41:16;6.90;99.90
21508;DHT22;10915;54.352;9.074;2023-04-03T16:43:42;6.90;99.90
21508;DHT22;10915;54.352;9.074;2023-04-03T16:46:08;6.80;99.90
21508;DHT22;10915;54.352;9.074;2023-04-03T16:48:33;6.70;99.90
21508;DHT22;10915;54.352;9.074;2023-04-03T16:50:59;6.70;99.90
21508;DHT22;10915;54.352;9.074;2023-04-03T16:53:26;6.70;99.90
21508;DHT22;10915;54.352;9.074;2023-04-03T16:55:52;6.60;99.90
21508;DHT22;10915;54.352;9.074;2023-04-03T16:58:18;6.50;99.90
21508;DHT22;10915;54.352;9.074;2023-04-03T17:00:44;6.50;99.90
21508;DHT22;10915;54.352;9.074;2023-04-03T17:03:10;6.50;99.90
21508;DHT22;10915;54.352;9.074;2023-04-03T17:05:35;6.40;99.90
21508;DHT22;10915;54.352;9.074;2023-04-03T17:08:01;6.40;99.90
21508;DHT22;10915;54.352;9.074;2023-04-03T17:10:27;6.40;99.90
21508;DHT22;10915;54.352;9.074;2023-04-03T17:12:53;6.20;99.90
21508;DHT22;10915;54.352;9.074;2023-04-03T17:15:19;6.10;99.90
21508;DHT22;10915;54.352;9.074;2023-04-03T17:17:46;6.10;99.90
21508;DHT22;10915;54.352;9.074;2023-04-03T17:20:12;6.00;99.90
21508;DHT22;10915;54.352;9.074;2023-04-03T17:22:37;6.00;99.90
21508;DHT22;10915;54.352;9.074;2023-04-03T17:25:04;6.00;99.90
21508;DHT22;10915;54.352;9.074;2023-04-03T17:27:29;6.00;99.90
21508;DHT22;10915;54.352;9.074;2023-04-03T17:29:55;5.90;99.90
21508;DHT22;10915;54.352;9.074;2023-04-03T17:32:20;5.90;99.90
21508;DHT22;10915;54.352;9.074;2023-04-03T17:34:47;5.80;99.90
21508;DHT22;10915;54.352;9.074;2023-04-03T17:37:12;5.80;99.90
21508;DHT22;10915;54.352;9.074;2023-04-03T17:39:38;5.70;99.90
21508;DHT22;10915;54.352;9.074;2023-04-03T17:42:04;5.60;99.90
21508;DHT22;10915;54.352;9.074;2023-04-03T17:44:29;5.60;99.90
21508;DHT22;10915;54.352;9.074;2023-04-03T17:46:55;5.60;99.90
21508;DHT22;10915;54.352;9.074;2023-04-03T17:49:21;5.60;99.90
21508;DHT22;10915;54.352;9.074;2023-04-03T17:51:47;5.40;99.90
21508;DHT22;10915;54.352;9.074;2023-04-03T17:54:12;5.40;99.90
21508;DHT22;10915;54.352;9.074;2023-04-03T17:56:38;5.30;99.90
21508;DHT22;10915;54.352;9.074;2023-04-03T17:59:04;5.30;99.90
21508;DHT22;10915;54.352;9.074;2023-04-03T18:01:32;5.10;99.90